createdAt,value
2018-05-26T00:02:03.395Z,26.30
2018-05-26T00:04:29.325Z,20.63
2018-05-26T00:06:55.125Z,61.00
2018-05-26T00:09:21.163Z,27.03
2018-05-26T00:11:46.959Z,27.07
2018-05-26T00:14:12.742Z,26.17
2018-05-26T00:16:38.551Z,21.77
2018-05-26T00:19:04.326Z,30.00
2018-05-26T00:21:30.143Z,51.63
2018-05-26T00:23:55.960Z,81.67
2018-05-26T00:26:22.839Z,55.30
2018-05-26T00:28:48.844Z,33.93
2018-05-26T00:31:14.767Z,54.90
2018-05-26T00:33:40.588Z,119.00
2018-05-26T00:36:06.527Z,46.83
2018-05-26T00:38:32.324Z,43.10
2018-05-26T00:40:58.261Z,79.53
2018-05-26T00:43:24.103Z,61.17
2018-05-26T00:45:49.894Z,66.63
2018-05-26T00:48:15.685Z,34.83
2018-05-26T00:50:41.933Z,79.43
2018-05-26T00:53:07.746Z,82.30
2018-05-26T00:55:33.734Z,37.47
2018-05-26T00:57:59.601Z,75.40
2018-05-26T01:00:25.430Z,61.30
2018-05-26T01:02:51.302Z,47.80
2018-05-26T01:05:17.261Z,29.03
2018-05-26T01:07:43.045Z,60.23
2018-05-26T01:10:09.742Z,61.40
2018-05-26T01:12:35.599Z,31.53
2018-05-26T01:15:01.724Z,44.43
2018-05-26T01:17:27.527Z,38.87
2018-05-26T01:19:53.317Z,80.07
2018-05-26T01:22:19.128Z,37.13
2018-05-26T01:24:44.923Z,52.57
2018-05-26T01:27:10.714Z,71.43
2018-05-26T01:29:36.521Z,74.10
2018-05-26T01:32:02.312Z,38.33
2018-05-26T01:34:28.120Z,45.97
2018-05-26T01:36:53.950Z,45.20
2018-05-26T01:39:19.740Z,35.73
2018-05-26T01:41:45.550Z,87.10
2018-05-26T01:44:11.364Z,63.03
2018-05-26T01:46:37.171Z,46.87
2018-05-26T01:49:02.986Z,59.47
2018-05-26T01:51:28.787Z,31.07
2018-05-26T01:53:54.582Z,38.10
2018-05-26T01:56:20.402Z,44.63
2018-05-26T01:58:46.254Z,41.50
2018-05-26T02:01:12.041Z,46.57
2018-05-26T02:03:37.841Z,34.63
2018-05-26T02:06:03.717Z,50.93
2018-05-26T02:08:29.510Z,53.80
2018-05-26T02:10:55.326Z,57.60
2018-05-26T02:13:21.128Z,44.20
2018-05-26T02:15:46.914Z,50.57
2018-05-26T02:18:12.686Z,41.73
2018-05-26T02:20:38.474Z,42.63
2018-05-26T02:23:04.254Z,68.57
2018-05-26T02:25:30.061Z,81.13
2018-05-26T02:27:55.850Z,56.30
2018-05-26T02:30:21.626Z,36.93
2018-05-26T02:32:47.463Z,47.43
2018-05-26T02:35:13.271Z,57.13
2018-05-26T02:37:39.062Z,85.40
2018-05-26T02:40:04.881Z,68.13
2018-05-26T02:42:30.681Z,52.30
2018-05-26T02:44:56.475Z,52.00
2018-05-26T02:47:22.266Z,40.93
2018-05-26T02:49:48.062Z,38.67
2018-05-26T02:52:13.855Z,63.03
2018-05-26T02:54:39.640Z,26.80
2018-05-26T02:57:05.425Z,36.03
2018-05-26T02:59:31.209Z,38.67
2018-05-26T03:01:57.017Z,26.40
2018-05-26T03:04:29.015Z,32.60
2018-05-26T03:07:00.847Z,27.87
2018-05-26T03:09:32.834Z,48.70
2018-05-26T03:12:04.791Z,26.90
2018-05-26T03:14:36.813Z,31.90
2018-05-26T03:17:02.658Z,26.27
2018-05-26T03:19:28.454Z,43.20
2018-05-26T03:21:54.261Z,55.53
2018-05-26T03:24:20.069Z,40.60
2018-05-26T03:26:45.856Z,22.73
2018-05-26T03:29:11.662Z,21.70
2018-05-26T03:31:37.470Z,22.77
2018-05-26T03:34:03.257Z,24.00
2018-05-26T03:36:29.033Z,25.77
2018-05-26T03:38:54.835Z,25.93
2018-05-26T03:41:20.613Z,29.90
2018-05-26T03:43:46.414Z,22.10
2018-05-26T03:46:12.230Z,23.77
2018-05-26T03:48:38.027Z,23.40
2018-05-26T03:51:03.819Z,23.40
2018-05-26T03:53:29.635Z,23.20
2018-05-26T03:56:07.806Z,21.47
2018-05-26T03:58:45.992Z,21.90
2018-05-26T04:01:11.836Z,21.93
2018-05-26T04:03:37.630Z,22.30
2018-05-26T04:06:03.503Z,20.03
2018-05-26T04:08:29.272Z,21.33
2018-05-26T04:10:55.066Z,19.80
2018-05-26T04:13:20.868Z,19.80
2018-05-26T04:15:46.649Z,19.00
2018-05-26T04:18:12.446Z,19.50
2018-05-26T04:20:38.258Z,20.27
2018-05-26T04:23:04.107Z,21.23
2018-05-26T04:25:29.879Z,19.33
2018-05-26T04:27:55.661Z,19.33
2018-05-26T04:30:21.492Z,19.43
2018-05-26T04:32:47.285Z,18.67
2018-05-26T04:35:13.091Z,18.70
2018-05-26T04:37:38.885Z,16.93
2018-05-26T04:40:04.698Z,17.77
2018-05-26T04:42:30.490Z,19.00
2018-05-26T04:44:56.333Z,16.03
2018-05-26T04:47:22.112Z,16.03
2018-05-26T04:49:47.927Z,16.13
2018-05-26T04:52:13.742Z,17.80
2018-05-26T04:54:39.533Z,16.80
2018-05-26T04:57:05.312Z,17.37
2018-05-26T04:59:31.140Z,15.50
2018-05-26T05:01:56.969Z,15.63
2018-05-26T05:04:22.779Z,15.43
2018-05-26T05:06:48.590Z,20.70
2018-05-26T05:09:14.370Z,20.53
2018-05-26T05:11:40.162Z,20.27
2018-05-26T05:14:05.948Z,17.10
2018-05-26T05:16:31.738Z,14.67
2018-05-26T05:18:57.554Z,16.17
2018-05-26T05:21:23.346Z,16.90
2018-05-26T05:23:49.126Z,21.57
2018-05-26T05:26:14.965Z,16.07
2018-05-26T05:28:40.753Z,15.03
2018-05-26T05:31:06.540Z,14.60
2018-05-26T05:33:32.347Z,14.70
2018-05-26T05:35:58.113Z,13.57
2018-05-26T05:38:23.919Z,12.93
2018-05-26T05:40:49.726Z,13.40
2018-05-26T05:43:15.527Z,13.23
2018-05-26T05:45:41.306Z,13.00
2018-05-26T05:48:07.150Z,12.60
2018-05-26T05:50:33.068Z,11.60
2018-05-26T05:52:58.885Z,12.77
2018-05-26T05:55:24.673Z,11.00
2018-05-26T05:57:50.473Z,12.40
2018-05-26T06:00:16.588Z,12.47
2018-05-26T06:02:42.377Z,12.27
2018-05-26T06:05:08.168Z,11.93
2018-05-26T06:07:33.967Z,10.67
2018-05-26T06:09:59.767Z,10.70
2018-05-26T06:12:25.542Z,10.60
2018-05-26T06:14:51.340Z,12.73
2018-05-26T06:17:17.516Z,15.00
2018-05-26T06:19:43.355Z,11.87
2018-05-26T06:22:09.386Z,10.97
2018-05-26T06:24:35.326Z,11.60
2018-05-26T06:27:01.121Z,14.77
2018-05-26T06:29:26.894Z,9.70
2018-05-26T06:31:53.013Z,10.30
2018-05-26T06:34:18.802Z,8.80
2018-05-26T06:36:44.607Z,9.20
2018-05-26T06:39:10.763Z,8.40
2018-05-26T06:41:36.827Z,8.73
2018-05-26T06:44:02.629Z,8.10
2018-05-26T06:46:28.694Z,8.30
2018-05-26T06:48:54.510Z,7.67
2018-05-26T06:51:20.362Z,7.50
2018-05-26T06:53:46.500Z,9.17
2018-05-26T06:56:12.324Z,7.70
2018-05-26T06:58:44.984Z,6.93
2018-05-26T07:01:10.997Z,6.87
2018-05-26T07:03:36.780Z,6.40
2018-05-26T07:06:02.571Z,7.10
2018-05-26T07:08:28.584Z,7.57
2018-05-26T07:10:54.381Z,6.17
2018-05-26T07:13:20.171Z,7.33
2018-05-26T07:15:46.068Z,5.60
2018-05-26T07:18:11.874Z,5.63
2018-05-26T07:20:37.650Z,5.00
2018-05-26T07:23:10.533Z,5.00
2018-05-26T07:25:36.320Z,4.70
2018-05-26T07:28:02.134Z,5.13
2018-05-26T07:30:28.026Z,5.40
2018-05-26T07:32:53.822Z,4.90
2018-05-26T07:35:19.609Z,4.70
2018-05-26T07:37:45.439Z,4.70
2018-05-26T07:40:11.226Z,8.10
2018-05-26T07:42:37.027Z,4.60
2018-05-26T07:45:03.126Z,4.63
2018-05-26T07:47:28.986Z,5.40
2018-05-26T07:49:54.770Z,4.70
2018-05-26T07:52:20.597Z,4.63
2018-05-26T07:54:46.376Z,4.60
2018-05-26T07:57:12.175Z,5.80
2018-05-26T07:59:37.975Z,5.17
2018-05-26T08:02:04.152Z,4.30
2018-05-26T08:04:29.941Z,5.07
2018-05-26T08:06:55.716Z,5.37
2018-05-26T08:09:22.421Z,7.30
2018-05-26T08:11:48.225Z,5.00
2018-05-26T08:14:14.025Z,4.40
2018-05-26T08:16:39.841Z,4.60
2018-05-26T08:19:05.641Z,4.40
2018-05-26T08:21:31.441Z,4.50
2018-05-26T08:23:57.270Z,4.50
2018-05-26T08:26:23.080Z,4.43
2018-05-26T08:28:48.898Z,4.90
2018-05-26T08:31:15.202Z,4.70
2018-05-26T08:33:41.040Z,4.67
2018-05-26T08:36:06.851Z,4.80
2018-05-26T08:38:33.514Z,4.67
2018-05-26T08:40:59.398Z,4.93
2018-05-26T08:43:25.189Z,4.73
2018-05-26T08:45:51.354Z,4.50
2018-05-26T08:48:17.181Z,4.77
2018-05-26T08:50:43.026Z,4.23
2018-05-26T08:53:08.814Z,4.60
2018-05-26T08:55:34.615Z,4.77
2018-05-26T08:58:00.423Z,4.03
2018-05-26T09:00:26.226Z,4.70
2018-05-26T09:02:52.030Z,4.50
2018-05-26T09:05:17.890Z,4.87
2018-05-26T09:07:43.682Z,5.00
2018-05-26T09:10:09.479Z,4.40
2018-05-26T09:12:35.277Z,4.60
2018-05-26T09:15:01.101Z,4.57
2018-05-26T09:17:26.879Z,4.40
2018-05-26T09:19:52.666Z,4.30
2018-05-26T09:22:18.542Z,4.60
2018-05-26T09:24:44.334Z,4.40
2018-05-26T09:27:10.150Z,4.60
2018-05-26T09:29:35.954Z,4.00
2018-05-26T09:32:01.780Z,4.60
2018-05-26T09:34:27.681Z,4.50
2018-05-26T09:36:53.466Z,4.50
2018-05-26T09:39:19.255Z,5.23
2018-05-26T09:41:45.070Z,5.60
2018-05-26T09:44:10.884Z,4.90
2018-05-26T09:46:36.692Z,5.20
2018-05-26T09:49:02.498Z,5.50
2018-05-26T09:51:28.317Z,4.30
2018-05-26T09:53:54.204Z,4.53
2018-05-26T09:56:20.087Z,4.90
2018-05-26T09:58:45.909Z,5.63
2018-05-26T10:01:11.712Z,5.00
2018-05-26T10:03:37.512Z,4.83
2018-05-26T10:06:03.333Z,5.40
2018-05-26T10:08:29.125Z,4.37
2018-05-26T10:10:54.917Z,4.07
2018-05-26T10:13:20.710Z,4.67
2018-05-26T10:15:46.489Z,4.67
2018-05-26T10:18:12.297Z,4.00
2018-05-26T10:20:38.086Z,5.30
2018-05-26T10:23:03.890Z,5.13
2018-05-26T10:25:29.685Z,4.10
2018-05-26T10:27:55.477Z,4.97
2018-05-26T10:30:21.291Z,4.90
2018-05-26T10:32:47.101Z,5.17
2018-05-26T10:35:12.898Z,4.30
2018-05-26T10:37:38.742Z,4.00
2018-05-26T10:40:04.534Z,5.43
2018-05-26T10:42:30.370Z,4.17
2018-05-26T10:44:56.173Z,4.43
2018-05-26T10:47:21.971Z,4.13
2018-05-26T10:49:47.756Z,4.13
2018-05-26T10:52:17.482Z,4.07
2018-05-26T10:54:43.271Z,4.27
2018-05-26T10:57:09.061Z,4.70
2018-05-26T10:59:34.848Z,4.20
2018-05-26T11:02:00.959Z,3.87
2018-05-26T11:04:26.791Z,4.40
2018-05-26T11:06:52.549Z,4.90
2018-05-26T11:09:18.350Z,4.20
2018-05-26T11:11:44.144Z,4.43
2018-05-26T11:14:09.942Z,4.20
2018-05-26T11:16:35.771Z,4.23
2018-05-26T11:19:01.604Z,5.13
2018-05-26T11:21:27.422Z,5.20
2018-05-26T11:23:53.350Z,4.73
2018-05-26T11:26:19.116Z,4.90
2018-05-26T11:28:44.846Z,4.60
2018-05-26T11:31:10.699Z,3.63
2018-05-26T11:33:36.465Z,4.53
2018-05-26T11:36:02.274Z,4.47
2018-05-26T11:38:28.067Z,5.63
2018-05-26T11:40:53.866Z,4.60
2018-05-26T11:43:19.981Z,4.00
2018-05-26T11:45:45.780Z,4.70
2018-05-26T11:48:11.577Z,16.80
2018-05-26T11:50:37.403Z,6.00
2018-05-26T11:53:03.199Z,8.40
2018-05-26T11:55:29.015Z,7.30
2018-05-26T11:57:54.850Z,9.93
2018-05-26T12:00:20.661Z,4.70
2018-05-26T12:02:46.736Z,8.87
2018-05-26T12:05:12.535Z,8.07
2018-05-26T12:07:38.349Z,7.50
2018-05-26T12:10:04.151Z,4.70
2018-05-26T12:12:29.943Z,4.30
2018-05-26T12:14:55.725Z,5.17
2018-05-26T12:17:21.520Z,4.70
2018-05-26T12:19:47.299Z,3.83
2018-05-26T12:22:13.130Z,4.57
2018-05-26T12:24:38.930Z,3.80
2018-05-26T12:27:04.731Z,4.30
2018-05-26T12:29:30.534Z,3.90
2018-05-26T12:31:56.315Z,4.33
2018-05-26T12:34:22.125Z,3.83
2018-05-26T12:36:47.914Z,4.00
2018-05-26T12:39:13.720Z,4.17
2018-05-26T12:41:39.513Z,4.40
2018-05-26T12:44:05.295Z,4.10
2018-05-26T12:46:31.150Z,4.70
2018-05-26T12:48:56.940Z,5.17
2018-05-26T12:51:22.730Z,6.33
2018-05-26T12:53:48.553Z,5.63
2018-05-26T12:56:14.478Z,4.27
2018-05-26T12:58:40.281Z,4.60
2018-05-26T13:01:06.078Z,3.50
2018-05-26T13:03:31.903Z,3.77
2018-05-26T13:05:57.696Z,3.87
2018-05-26T13:08:23.476Z,4.10
2018-05-26T13:10:49.265Z,4.70
2018-05-26T13:13:15.086Z,4.07
2018-05-26T13:15:40.882Z,4.70
2018-05-26T13:18:06.704Z,4.70
2018-05-26T13:20:32.627Z,4.17
2018-05-26T13:22:58.454Z,4.17
2018-05-26T13:25:24.229Z,4.07
2018-05-26T13:27:50.267Z,4.07
2018-05-26T13:30:16.055Z,4.13
2018-05-26T13:32:41.852Z,4.10
2018-05-26T13:35:07.708Z,3.70
2018-05-26T13:37:33.511Z,3.30
2018-05-26T13:39:59.298Z,3.30
2018-05-26T13:42:25.096Z,2.40
2018-05-26T13:44:50.894Z,3.30
2018-05-26T13:47:16.722Z,2.83
2018-05-26T13:49:42.525Z,2.97
2018-05-26T13:52:08.339Z,3.13
2018-05-26T13:54:34.183Z,3.40
2018-05-26T13:56:59.987Z,2.67
2018-05-26T13:59:25.791Z,2.60
2018-05-26T14:01:51.609Z,2.77
2018-05-26T14:04:17.407Z,3.10
2018-05-26T14:06:43.206Z,2.77
2018-05-26T14:09:09.066Z,2.87
2018-05-26T14:11:34.850Z,2.13
2018-05-26T14:14:00.641Z,2.30
2018-05-26T14:16:26.448Z,2.20
2018-05-26T14:18:52.253Z,2.67
2018-05-26T14:21:18.091Z,4.23
2018-05-26T14:23:43.916Z,2.57
2018-05-26T14:26:09.709Z,2.60
2018-05-26T14:28:35.516Z,2.77
2018-05-26T14:31:01.319Z,2.20
2018-05-26T14:33:27.127Z,2.23
2018-05-26T14:35:52.924Z,3.50
2018-05-26T14:38:18.716Z,2.70
2018-05-26T14:40:44.515Z,4.30
2018-05-26T14:43:10.317Z,2.43
2018-05-26T14:45:36.116Z,2.37
2018-05-26T14:48:01.919Z,3.47
2018-05-26T14:50:27.768Z,2.87
2018-05-26T14:52:53.561Z,2.67
2018-05-26T14:55:19.349Z,3.00
2018-05-26T14:57:45.187Z,2.60
2018-05-26T15:00:10.988Z,3.00
2018-05-26T15:02:36.774Z,2.93
2018-05-26T15:05:02.619Z,3.60
2018-05-26T15:07:28.436Z,5.03
2018-05-26T15:09:54.261Z,3.60
2018-05-26T15:12:20.058Z,3.10
2018-05-26T15:14:45.838Z,2.67
2018-05-26T15:17:11.642Z,2.63
2018-05-26T15:19:37.477Z,3.20
2018-05-26T15:22:03.293Z,3.50
2018-05-26T15:24:29.106Z,2.63
2018-05-26T15:26:54.913Z,3.30
2018-05-26T15:29:20.701Z,4.33
2018-05-26T15:31:46.511Z,3.53
2018-05-26T15:34:12.330Z,3.17
2018-05-26T15:36:38.121Z,3.40
2018-05-26T15:39:03.933Z,2.80
2018-05-26T15:41:30.081Z,2.73
2018-05-26T15:43:55.909Z,2.70
2018-05-26T15:46:21.735Z,2.97
2018-05-26T15:48:47.539Z,3.60
2018-05-26T15:51:13.339Z,5.60
2018-05-26T15:53:39.157Z,4.30
2018-05-26T15:56:04.955Z,3.20
2018-05-26T15:58:31.012Z,3.60
2018-05-26T16:00:56.812Z,3.10
2018-05-26T16:03:22.603Z,4.53
2018-05-26T16:05:48.433Z,3.93
2018-05-26T16:08:14.230Z,3.20
2018-05-26T16:10:40.030Z,3.80
2018-05-26T16:13:05.836Z,3.50
2018-05-26T16:15:31.618Z,3.87
2018-05-26T16:17:57.413Z,4.37
2018-05-26T16:20:23.298Z,4.97
2018-05-26T16:22:49.111Z,4.33
2018-05-26T16:25:14.912Z,3.77
2018-05-26T16:27:40.737Z,3.23
2018-05-26T16:30:06.569Z,5.23
2018-05-26T16:32:32.387Z,3.33
2018-05-26T16:34:58.250Z,3.60
2018-05-26T16:37:24.081Z,3.00
2018-05-26T16:39:49.930Z,3.40
2018-05-26T16:42:16.062Z,4.63
2018-05-26T16:44:41.862Z,4.30
2018-05-26T16:47:07.691Z,3.43
2018-05-26T16:49:33.528Z,3.97
2018-05-26T16:51:59.313Z,4.90
2018-05-26T16:54:25.107Z,3.60
2018-05-26T16:56:50.922Z,4.60
2018-05-26T16:59:16.730Z,3.77
2018-05-26T17:01:42.530Z,5.07
2018-05-26T17:04:08.340Z,4.10
2018-05-26T17:06:34.151Z,3.90
2018-05-26T17:09:00.150Z,3.97
2018-05-26T17:11:26.275Z,4.13
2018-05-26T17:13:52.109Z,3.83
2018-05-26T17:16:18.086Z,4.77
2018-05-26T17:18:43.885Z,5.20
2018-05-26T17:21:09.684Z,6.07
2018-05-26T17:23:35.505Z,5.00
2018-05-26T17:26:01.490Z,17.77
2018-05-26T17:28:27.322Z,8.87
2018-05-26T17:30:53.138Z,15.00
2018-05-26T17:33:19.222Z,13.70
2018-05-26T17:35:45.037Z,4.83
2018-05-26T17:38:10.834Z,4.87
2018-05-26T17:40:36.624Z,4.80
2018-05-26T17:43:02.465Z,5.50
2018-05-26T17:45:28.270Z,4.20
2018-05-26T17:47:54.070Z,3.80
2018-05-26T17:50:19.869Z,5.80
2018-05-26T17:52:45.789Z,4.57
2018-05-26T17:55:11.592Z,3.80
2018-05-26T17:57:37.598Z,4.27
2018-05-26T18:00:03.419Z,3.90
2018-05-26T18:02:29.229Z,3.80
2018-05-26T18:04:55.025Z,8.17
2018-05-26T18:07:20.842Z,4.90
2018-05-26T18:09:46.648Z,4.60
2018-05-26T18:12:12.442Z,5.53
2018-05-26T18:14:38.238Z,4.03
2018-05-26T18:17:04.105Z,4.77
2018-05-26T18:19:29.983Z,5.57
2018-05-26T18:21:55.789Z,4.77
2018-05-26T18:24:21.650Z,3.93
2018-05-26T18:26:47.441Z,5.00
2018-05-26T18:29:13.230Z,3.87
2018-05-26T18:31:39.037Z,4.40
2018-05-26T18:34:04.902Z,5.07
2018-05-26T18:36:30.701Z,5.63
2018-05-26T18:38:56.513Z,5.43
2018-05-26T18:41:22.367Z,5.63
2018-05-26T18:43:48.159Z,5.53
2018-05-26T18:46:13.961Z,5.90
2018-05-26T18:48:39.808Z,4.70
2018-05-26T18:51:05.713Z,5.03
2018-05-26T18:53:31.501Z,6.50
2018-05-26T18:55:57.311Z,4.70
2018-05-26T18:58:23.130Z,4.60
2018-05-26T19:00:49.015Z,6.53
2018-05-26T19:03:14.856Z,4.33
2018-05-26T19:05:40.664Z,7.27
2018-05-26T19:08:06.890Z,6.40
2018-05-26T19:10:32.713Z,5.10
2018-05-26T19:12:58.552Z,4.50
2018-05-26T19:15:24.386Z,4.67
2018-05-26T19:17:50.190Z,3.10
2018-05-26T19:20:16.006Z,5.70
2018-05-26T19:22:41.834Z,7.07
2018-05-26T19:25:07.641Z,4.60
2018-05-26T19:27:33.465Z,6.57
2018-05-26T19:29:59.306Z,4.77
2018-05-26T19:32:25.096Z,4.10
2018-05-26T19:34:50.893Z,3.43
2018-05-26T19:37:16.819Z,3.73
2018-05-26T19:39:43.193Z,4.20
2018-05-26T19:42:10.716Z,3.77
2018-05-26T19:44:36.573Z,4.53
2018-05-26T19:47:03.339Z,3.57
2018-05-26T19:49:29.145Z,4.63
2018-05-26T19:51:55.392Z,3.47
2018-05-26T19:54:21.236Z,4.50
2018-05-26T19:56:47.548Z,3.83
2018-05-26T19:59:13.344Z,3.60
2018-05-26T20:01:39.423Z,5.23
2018-05-26T20:04:05.241Z,4.50
2018-05-26T20:06:31.174Z,16.30
2018-05-26T20:08:57.201Z,13.67
2018-05-26T20:11:23.212Z,14.37
2018-05-26T20:13:49.310Z,9.70
2018-05-26T20:16:15.117Z,6.87
2018-05-26T20:18:40.912Z,4.47
2018-05-26T20:21:06.977Z,4.20
2018-05-26T20:23:32.782Z,5.07
2018-05-26T20:25:58.582Z,11.67
2018-05-26T20:28:24.635Z,4.30
2018-05-26T20:30:50.439Z,9.73
2018-05-26T20:33:16.495Z,5.63
2018-05-26T20:35:42.700Z,4.80
2018-05-26T20:38:08.729Z,7.27
2018-05-26T20:40:34.575Z,4.90
2018-05-26T20:43:00.797Z,6.90
2018-05-26T20:45:26.618Z,17.50
2018-05-26T20:47:52.439Z,14.70
2018-05-26T20:50:18.531Z,16.47
2018-05-26T20:52:44.329Z,14.20
2018-05-26T20:55:10.474Z,9.87
2018-05-26T20:57:36.302Z,8.90
2018-05-26T21:00:02.470Z,28.37
2018-05-26T21:02:28.275Z,14.30
2018-05-26T21:04:54.109Z,12.40
2018-05-26T21:07:20.141Z,6.00
2018-05-26T21:09:45.982Z,5.93
2018-05-26T21:12:12.169Z,6.10
2018-05-26T21:14:37.963Z,6.13
2018-05-26T21:17:03.786Z,5.23
2018-05-26T21:19:29.606Z,5.13
2018-05-26T21:21:55.399Z,5.57
2018-05-26T21:24:21.221Z,5.03
2018-05-26T21:26:47.111Z,5.40
2018-05-26T21:29:12.973Z,5.17
2018-05-26T21:31:38.787Z,4.63
2018-05-26T21:34:04.593Z,4.90
2018-05-26T21:36:30.630Z,5.57
2018-05-26T21:38:56.438Z,6.40
2018-05-26T21:41:22.467Z,5.80
2018-05-26T21:43:48.290Z,4.17
2018-05-26T21:46:14.087Z,5.10
2018-05-26T21:48:39.893Z,5.87
2018-05-26T21:51:06.677Z,5.90
2018-05-26T21:53:32.568Z,6.10
2018-05-26T21:55:58.663Z,5.93
2018-05-26T21:58:24.568Z,5.33
2018-05-26T22:00:51.328Z,8.27
2018-05-26T22:03:17.130Z,6.20
2018-05-26T22:05:43.016Z,6.70
2018-05-26T22:08:08.967Z,6.30
2018-05-26T22:10:34.771Z,6.47
2018-05-26T22:13:00.606Z,7.57
2018-05-26T22:15:26.434Z,7.27
2018-05-26T22:17:52.476Z,6.43
2018-05-26T22:20:18.350Z,6.63
2018-05-26T22:22:44.510Z,6.77
2018-05-26T22:25:10.388Z,6.10
2018-05-26T22:27:36.405Z,7.40
2018-05-26T22:30:02.278Z,6.80
2018-05-26T22:32:28.094Z,7.30
2018-05-26T22:34:53.920Z,7.27
2018-05-26T22:37:19.737Z,6.40
2018-05-26T22:39:45.544Z,6.27
2018-05-26T22:42:11.371Z,7.10
2018-05-26T22:44:37.192Z,6.43
2018-05-26T22:47:03.006Z,6.53
2018-05-26T22:49:28.801Z,7.13
2018-05-26T22:51:54.594Z,6.60
2018-05-26T22:54:20.434Z,7.13
2018-05-26T22:56:46.239Z,7.10
2018-05-26T22:59:12.070Z,8.00
2018-05-26T23:01:37.970Z,8.07
2018-05-26T23:04:03.779Z,7.40
2018-05-26T23:06:29.565Z,8.60
2018-05-26T23:08:55.395Z,8.17
2018-05-26T23:11:21.190Z,7.63
2018-05-26T23:13:47.004Z,8.10
2018-05-26T23:16:12.837Z,8.90
2018-05-26T23:18:38.673Z,8.27
2018-05-26T23:21:04.501Z,7.77
2018-05-26T23:23:30.322Z,8.57
2018-05-26T23:25:56.116Z,8.30
2018-05-26T23:28:22.157Z,8.40
2018-05-26T23:30:47.978Z,10.43
2018-05-26T23:33:13.789Z,9.90
2018-05-26T23:35:39.572Z,11.30
2018-05-26T23:38:05.397Z,9.00
2018-05-26T23:40:31.210Z,9.93
2018-05-26T23:42:57.010Z,9.30
2018-05-26T23:45:22.804Z,11.03
2018-05-26T23:47:48.597Z,11.50
2018-05-26T23:50:14.431Z,11.03
2018-05-26T23:52:40.239Z,10.90
2018-05-26T23:55:06.058Z,12.80
2018-05-26T23:57:31.895Z,22.20
2018-05-26T23:59:57.714Z,18.53
